Time,TemperatureF,DewpointF,PressureIn,WindDirection,WindDirectionDegrees,WindSpeedMPH,WindSpeedGustMPH,Humidity,HourlyPrecipIn,Conditions,Clouds,dailyrainin,SoftwareType,DateUTC
2013-02-02 00:15:00,19.5,11.0,30.40,NW,306,0.0,0.0,68,0.00,,,0.00,weatherlink.com 1.10,2013-02-02 05:15:00,
2013-02-02 00:30:00,18.9,9.0,30.41,NW,306,0.0,0.0,66,0.00,,,0.00,weatherlink.com 1.10,2013-02-02 05:30:00,
2013-02-02 00:45:00,18.8,8.0,30.41,NW,306,0.0,1.0,64,0.00,,,0.00,weatherlink.com 1.10,2013-02-02 05:45:00,
2013-02-02 01:00:00,19.0,9.0,30.41,NW,306,0.0,0.0,64,0.00,,,0.00,weatherlink.com 1.10,2013-02-02 06:00:00,
2013-02-02 01:30:00,18.8,9.0,30.39,NW,306,0.0,0.0,67,0.00,,,0.00,weatherlink.com 1.10,2013-02-02 06:30:00,
2013-02-02 01:45:00,18.7,10.0,30.39,NW,306,0.0,0.0,70,0.00,,,0.00,weatherlink.com 1.10,2013-02-02 06:45:00,
2013-02-02 02:00:00,18.5,11.0,30.39,NW,306,0.0,1.0,71,0.00,,,0.00,weatherlink.com 1.10,2013-02-02 07:00:00,
2013-02-02 02:15:00,18.3,10.0,30.40,NW,306,0.0,0.0,70,0.00,,,0.00,weatherlink.com 1.10,2013-02-02 07:15:00,
2013-02-02 02:30:00,18.4,10.0,30.40,NW,306,0.0,0.0,70,0.00,,,0.00,weatherlink.com 1.10,2013-02-02 07:30:00,
2013-02-02 02:45:00,18.8,11.0,30.39,NW,306,0.0,1.0,71,0.00,,,0.00,weatherlink.com 1.10,2013-02-02 07:45:00,
2013-02-02 03:00:00,18.6,11.0,30.38,NW,306,0.0,1.0,73,0.00,,,0.00,weatherlink.com 1.10,2013-02-02 08:00:00,
2013-02-02 03:15:00,18.4,12.0,30.38,NW,306,0.0,1.0,75,0.00,,,0.00,weatherlink.com 1.10,2013-02-02 08:15:00,
2013-02-02 03:30:00,18.2,12.0,30.37,NW,306,0.0,1.0,76,0.00,,,0.00,weatherlink.com 1.10,2013-02-02 08:30:00,
2013-02-02 03:45:00,18.3,12.0,30.37,NW,306,0.0,0.0,75,0.00,,,0.00,weatherlink.com 1.10,2013-02-02 08:45:00,
2013-02-02 04:00:00,18.8,12.0,30.37,NW,306,0.0,0.0,74,0.00,,,0.00,weatherlink.com 1.10,2013-02-02 09:00:00,
2013-02-02 04:16:00,19.4,12.0,30.37,NW,306,0.0,1.0,72,0.00,,,0.00,weatherlink.com 1.10,2013-02-02 09:16:00,
2013-02-02 04:31:00,19.8,12.0,30.38,NW,306,0.0,0.0,73,0.00,,,0.00,weatherlink.com 1.10,2013-02-02 09:31:00,
2013-02-02 04:46:00,19.3,12.0,30.38,NW,306,0.0,0.0,72,0.00,,,0.00,weatherlink.com 1.10,2013-02-02 09:46:00,
2013-02-02 05:01:00,18.7,11.0,30.38,NW,306,0.0,0.0,72,0.00,,,0.00,weatherlink.com 1.10,2013-02-02 10:01:00,
2013-02-02 05:16:00,18.2,11.0,30.38,NW,306,0.0,2.0,73,0.00,,,0.00,weatherlink.com 1.10,2013-02-02 10:16:00,
2013-02-02 05:31:00,17.8,11.0,30.39,NW,306,1.0,2.0,75,0.00,,,0.00,weatherlink.com 1.10,2013-02-02 10:31:00,
2013-02-02 05:46:00,17.6,11.0,30.39,NW,306,0.0,0.0,75,0.00,,,0.00,weatherlink.com 1.10,2013-02-02 10:46:00,
2013-02-02 06:01:00,17.4,10.0,30.38,NW,304,0.0,2.0,73,0.00,,,0.00,weatherlink.com 1.10,2013-02-02 11:01:00,
2013-02-02 06:16:00,17.3,11.0,30.39,South,178,2.0,3.0,75,0.00,,,0.00,weatherlink.com 1.10,2013-02-02 11:16:00,
2013-02-02 06:31:00,17.0,10.0,30.39,South,182,0.0,2.0,74,0.00,,,0.00,weatherlink.com 1.10,2013-02-02 11:31:00,
2013-02-02 06:46:00,17.5,10.0,30.39,South,183,0.0,2.0,72,0.00,,,0.00,weatherlink.com 1.10,2013-02-02 11:46:00,
2013-02-02 07:01:00,17.7,11.0,30.39,SSE,157,0.0,1.0,75,0.00,,,0.00,weatherlink.com 1.10,2013-02-02 12:01:00,
2013-02-02 07:16:00,17.5,12.0,30.39,SSE,157,0.0,1.0,78,0.00,,,0.00,weatherlink.com 1.10,2013-02-02 12:16:00,
2013-02-02 07:31:00,17.2,12.0,30.40,SSE,157,0.0,1.0,79,0.00,,,0.00,weatherlink.com 1.10,2013-02-02 12:31:00,
2013-02-02 07:46:00,17.1,10.0,30.40,SSW,198,2.0,3.0,74,0.00,,,0.00,weatherlink.com 1.10,2013-02-02 12:46:00,
2013-02-02 08:01:00,17.9,10.0,30.40,SW,217,2.0,4.0,72,0.00,,,0.00,weatherlink.com 1.10,2013-02-02 13:01:00,
2013-02-02 08:16:00,19.8,10.0,30.41,South,176,2.0,5.0,66,0.00,,,0.00,weatherlink.com 1.10,2013-02-02 13:16:00,
2013-02-02 08:31:00,21.6,10.0,30.41,SW,236,2.0,6.0,62,0.00,,,0.00,weatherlink.com 1.10,2013-02-02 13:31:00,
2013-02-02 08:46:00,23.0,11.0,30.41,SSW,201,1.0,5.0,61,0.00,,,0.00,weatherlink.com 1.10,2013-02-02 13:46:00,
2013-02-02 09:01:00,23.7,11.0,30.40,South,191,4.0,7.0,59,0.00,,,0.00,weatherlink.com 1.10,2013-02-02 14:01:00,
2013-02-02 09:16:00,24.8,12.0,30.40,SSW,200,5.0,7.0,58,0.00,,,0.00,weatherlink.com 1.10,2013-02-02 14:16:00,
2013-02-02 09:31:00,26.5,12.0,30.39,South,170,4.0,7.0,55,0.00,,,0.00,weatherlink.com 1.10,2013-02-02 14:31:00,
2013-02-02 09:46:00,27.7,12.0,30.39,SSE,159,3.0,7.0,52,0.00,,,0.00,weatherlink.com 1.10,2013-02-02 14:46:00,
2013-02-02 10:01:00,27.5,12.0,30.38,SW,223,3.0,6.0,52,0.00,,,0.00,weatherlink.com 1.10,2013-02-02 15:01:00,
2013-02-02 10:16:00,28.2,12.0,30.37,SE,144,3.0,10.0,51,0.00,,,0.00,weatherlink.com 1.10,2013-02-02 15:16:00,
2013-02-02 10:31:00,29.6,12.0,30.36,South,169,9.0,10.0,49,0.00,,,0.00,weatherlink.com 1.10,2013-02-02 15:31:00,
2013-02-02 10:46:00,30.9,13.0,30.36,SW,222,3.0,6.0,47,0.00,,,0.00,weatherlink.com 1.10,2013-02-02 15:46:00,
2013-02-02 11:01:00,30.9,12.0,30.35,NW,325,1.0,11.0,45,0.00,,,0.00,weatherlink.com 1.10,2013-02-02 16:01:00,
2013-02-02 11:16:00,30.5,12.0,30.34,SSW,192,3.0,8.0,46,0.00,,,0.00,weatherlink.com 1.10,2013-02-02 16:16:00,
2013-02-02 11:32:00,30.7,11.0,30.32,South,175,7.0,10.0,44,0.00,,,0.00,weatherlink.com 1.10,2013-02-02 16:32:00,
2013-02-02 11:47:00,31.9,12.0,30.30,SSE,161,5.0,9.0,43,0.00,,,0.00,weatherlink.com 1.10,2013-02-02 16:47:00,
2013-02-02 12:02:00,32.1,12.0,30.30,SSW,196,4.0,10.0,43,0.00,,,0.00,weatherlink.com 1.10,2013-02-02 17:02:00,
2013-02-02 12:17:00,33.2,12.0,30.29,SW,232,1.0,10.0,41,0.00,,,0.00,weatherlink.com 1.10,2013-02-02 17:17:00,
2013-02-02 12:32:00,33.5,11.0,30.27,SSE,163,6.0,11.0,39,0.00,,,0.00,weatherlink.com 1.10,2013-02-02 17:32:00,
2013-02-02 12:47:00,34.9,10.0,30.25,SSW,196,0.0,9.0,36,0.00,,,0.00,weatherlink.com 1.10,2013-02-02 17:47:00,
2013-02-02 13:02:00,35.7,10.0,30.24,NW,317,4.0,12.0,35,0.00,,,0.00,weatherlink.com 1.10,2013-02-02 18:02:00,
2013-02-02 13:17:00,34.6,10.0,30.23,WNW,293,3.0,11.0,36,0.00,,,0.00,weatherlink.com 1.10,2013-02-02 18:17:00,
2013-02-02 13:32:00,35.1,10.0,30.21,West,259,4.0,8.0,36,0.00,,,0.00,weatherlink.com 1.10,2013-02-02 18:32:00,
2013-02-02 13:47:00,36.1,11.0,30.21,SSE,155,6.0,14.0,35,0.00,,,0.00,weatherlink.com 1.10,2013-02-02 18:47:00,
2013-02-02 14:02:00,36.1,11.0,30.21,South,178,3.0,13.0,36,0.00,,,0.00,weatherlink.com 1.10,2013-02-02 19:02:00,
2013-02-02 14:17:00,37.1,12.0,30.20,West,278,2.0,8.0,36,0.00,,,0.00,weatherlink.com 1.10,2013-02-02 19:17:00,
2013-02-02 14:32:00,37.1,12.0,30.19,SSW,209,4.0,11.0,35,0.00,,,0.00,weatherlink.com 1.10,2013-02-02 19:32:00,
2013-02-02 14:47:00,37.3,12.0,30.18,South,175,2.0,9.0,36,0.00,,,0.00,weatherlink.com 1.10,2013-02-02 19:47:00,
2013-02-02 15:02:00,37.1,12.0,30.17,SSW,209,5.0,10.0,35,0.00,,,0.00,weatherlink.com 1.10,2013-02-02 20:02:00,
2013-02-02 15:17:00,36.7,11.0,30.17,SW,220,3.0,13.0,35,0.00,,,0.00,weatherlink.com 1.10,2013-02-02 20:17:00,
2013-02-02 15:32:00,36.7,11.0,30.16,South,172,2.0,8.0,35,0.00,,,0.00,weatherlink.com 1.10,2013-02-02 20:32:00,
2013-02-02 15:47:00,36.8,11.0,30.16,West,261,1.0,5.0,35,0.00,,,0.00,weatherlink.com 1.10,2013-02-02 20:47:00,
2013-02-02 16:02:00,37.3,12.0,30.16,WSW,242,1.0,7.0,35,0.00,,,0.00,weatherlink.com 1.10,2013-02-02 21:02:00,
2013-02-02 16:17:00,37.4,12.0,30.15,SE,132,1.0,5.0,35,0.00,,,0.00,weatherlink.com 1.10,2013-02-02 21:17:00,
2013-02-02 16:32:00,37.3,12.0,30.14,SW,227,1.0,8.0,35,0.00,,,0.00,weatherlink.com 1.10,2013-02-02 21:32:00,
2013-02-02 16:47:00,37.1,12.0,30.13,SSW,213,2.0,4.0,36,0.00,,,0.00,weatherlink.com 1.10,2013-02-02 21:47:00,
2013-02-02 17:02:00,37.2,12.0,30.13,SSE,162,2.0,5.0,36,0.00,,,0.00,weatherlink.com 1.10,2013-02-02 22:02:00,
2013-02-02 17:17:00,37.3,12.0,30.13,South,171,1.0,5.0,36,0.00,,,0.00,weatherlink.com 1.10,2013-02-02 22:17:00,
2013-02-02 17:32:00,36.9,13.0,30.12,SSE,166,1.0,2.0,38,0.00,,,0.00,weatherlink.com 1.10,2013-02-02 22:32:00,
2013-02-02 17:47:00,36.1,14.0,30.12,South,183,0.0,2.0,40,0.00,,,0.00,weatherlink.com 1.10,2013-02-02 22:47:00,
2013-02-02 18:02:00,35.6,13.0,30.11,SE,144,0.0,2.0,40,0.00,,,0.00,weatherlink.com 1.10,2013-02-02 23:02:00,
2013-02-02 18:18:00,35.5,15.0,30.11,SSW,207,0.0,1.0,44,0.00,,,0.00,weatherlink.com 1.10,2013-02-02 23:18:00,
2013-02-02 18:33:00,35.3,14.0,30.11,South,169,1.0,1.0,42,0.00,,,0.00,weatherlink.com 1.10,2013-02-02 23:33:00,
2013-02-02 18:48:00,35.3,15.0,30.10,South,169,0.0,0.0,43,0.00,,,0.00,weatherlink.com 1.10,2013-02-02 23:48:00,
2013-02-02 19:03:00,35.2,16.0,30.10,South,169,0.0,0.0,46,0.00,,,0.00,weatherlink.com 1.10,2013-02-03 00:03:00,
2013-02-02 19:18:00,34.9,15.0,30.09,South,169,0.0,1.0,45,0.00,,,0.00,weatherlink.com 1.10,2013-02-03 00:18:00,
2013-02-02 19:33:00,34.4,15.0,30.09,South,169,0.0,0.0,46,0.00,,,0.00,weatherlink.com 1.10,2013-02-03 00:33:00,
2013-02-02 19:48:00,34.3,14.0,30.09,South,183,1.0,3.0,44,0.00,,,0.00,weatherlink.com 1.10,2013-02-03 00:48:00,
2013-02-02 20:03:00,34.9,14.0,30.09,SSE,155,1.0,3.0,43,0.00,,,0.00,weatherlink.com 1.10,2013-02-03 01:03:00,
2013-02-02 20:18:00,35.2,15.0,30.09,SSE,155,0.0,2.0,43,0.00,,,0.00,weatherlink.com 1.10,2013-02-03 01:18:00,
2013-02-02 20:33:00,35.5,14.0,30.08,SSE,155,0.0,1.0,42,0.00,,,0.00,weatherlink.com 1.10,2013-02-03 01:33:00,
2013-02-02 20:48:00,35.7,15.0,30.08,South,169,2.0,2.0,42,0.00,,,0.00,weatherlink.com 1.10,2013-02-03 01:48:00,
2013-02-02 21:03:00,36.0,14.0,30.08,West,269,1.0,4.0,41,0.00,,,0.00,weatherlink.com 1.10,2013-02-03 02:03:00,
2013-02-02 21:18:00,36.6,14.0,30.08,West,269,3.0,4.0,40,0.00,,,0.00,weatherlink.com 1.10,2013-02-03 02:18:00,
2013-02-02 21:33:00,37.2,18.0,30.07,WNW,302,3.0,8.0,45,0.00,,,0.00,weatherlink.com 1.10,2013-02-03 02:33:00,
2013-02-02 21:48:00,37.4,19.0,30.08,West,281,3.0,5.0,48,0.00,,,0.00,weatherlink.com 1.10,2013-02-03 02:48:00,
2013-02-02 22:03:00,37.5,21.0,30.07,WNW,302,3.0,6.0,52,0.00,,,0.00,weatherlink.com 1.10,2013-02-03 03:03:00,
2013-02-02 22:18:00,37.8,23.0,30.07,WSW,255,5.0,8.0,55,0.00,,,0.00,weatherlink.com 1.10,2013-02-03 03:18:00,
2013-02-02 22:33:00,37.8,23.0,30.07,West,266,1.0,5.0,56,0.00,,,0.00,weatherlink.com 1.10,2013-02-03 03:33:00,
2013-02-02 22:48:00,37.6,22.0,30.07,NW,313,1.0,6.0,53,0.00,,,0.00,weatherlink.com 1.10,2013-02-03 03:48:00,
2013-02-02 23:03:00,37.2,20.0,30.07,WSW,244,1.0,6.0,51,0.00,,,0.00,weatherlink.com 1.10,2013-02-03 04:03:00,
2013-02-02 23:18:00,36.9,21.0,30.06,SW,223,2.0,5.0,53,0.00,,,0.00,weatherlink.com 1.10,2013-02-03 04:18:00,
2013-02-02 23:33:00,36.8,23.0,30.06,WNW,297,4.0,8.0,58,0.00,,,0.00,weatherlink.com 1.10,2013-02-03 04:33:00,
2013-02-02 23:48:00,36.5,24.0,30.05,NW,307,0.0,4.0,60,0.00,,,0.00,weatherlink.com 1.10,2013-02-03 04:48:00,